San Antonio, Texas
Traffic Map
Current Weather Conditions
San Antonio, Texas
Overcast
Overcast
53°
Feels Like: 53°
Wind Chill: 53° Ceiling: 1900
Heat Index: 53° Visibility: 10mi
Dew Point: 46° Wind: 6mph
Humidity: 79% Direction: 40° (NE)
Pressure: 30.14in Gusts: 0mph
Raw Report DataKSKF 200258Z AUTO 04005KT 10SM OVC019 11/08 A3014 RMK AO2 SLP207 T01140078 52017 $
Traffic Incident Summary
Active as of:
Severity:
Category:
InformationThere was an issue retrieving the traffic information for this location. Please try a different location or try again shortly.
Advertisements
Track Severe Weather on mobile